createdAt,value
2019-05-23T00:01:53.722Z,12.50
2019-05-23T00:04:29.367Z,12.40
2019-05-23T00:07:01.673Z,12.40
2019-05-23T00:09:32.306Z,12.40
2019-05-23T00:12:21.451Z,12.30
2019-05-23T00:14:56.089Z,12.30
2019-05-23T00:17:27.401Z,12.20
2019-05-23T00:19:59.081Z,12.30
2019-05-23T00:22:29.437Z,12.20
2019-05-23T00:25:00.855Z,12.20
2019-05-23T00:27:31.957Z,12.20
2019-05-23T00:30:04.006Z,12.20
2019-05-23T00:32:36.437Z,12.20
2019-05-23T00:35:09.214Z,12.20
2019-05-23T00:37:43.190Z,12.20
2019-05-23T00:40:15.613Z,12.20
2019-05-23T00:42:46.833Z,12.20
2019-05-23T00:45:17.744Z,12.20
2019-05-23T00:47:48.525Z,12.10
2019-05-23T00:50:21.158Z,12.10
2019-05-23T00:52:53.196Z,12.10
2019-05-23T00:55:24.334Z,12.10
2019-05-23T00:57:56.087Z,12.10
2019-05-23T01:00:27.598Z,12.10
2019-05-23T01:02:58.703Z,12.10
2019-05-23T01:05:30.025Z,12.00
2019-05-23T01:08:01.940Z,12.00
2019-05-23T01:10:32.718Z,12.00
2019-05-23T01:13:04.173Z,12.00
2019-05-23T01:15:34.875Z,11.90
2019-05-23T01:18:05.556Z,11.90
2019-05-23T01:20:55.935Z,12.00
2019-05-23T01:23:28.488Z,11.90
2019-05-23T01:25:59.210Z,12.00
2019-05-23T01:28:29.991Z,12.00
2019-05-23T01:31:04.528Z,12.00
2019-05-23T01:33:35.361Z,12.00
2019-05-23T01:36:06.057Z,12.00
2019-05-23T01:38:38.208Z,12.00
2019-05-23T01:41:10.245Z,12.00
2019-05-23T01:43:41.446Z,12.00
2019-05-23T01:46:12.745Z,12.00
2019-05-23T01:48:43.163Z,11.90
2019-05-23T01:51:14.104Z,11.90
2019-05-23T01:53:58.004Z,11.90
2019-05-23T01:56:28.785Z,11.90
2019-05-23T01:58:59.193Z,11.90
2019-05-23T02:01:29.539Z,11.80
2019-05-23T02:04:00.229Z,11.90
2019-05-23T02:06:31.094Z,11.80
2019-05-23T02:09:02.258Z,11.80
2019-05-23T02:11:52.835Z,11.80
2019-05-23T02:14:23.393Z,11.90
2019-05-23T02:16:56.276Z,11.80
2019-05-23T02:19:28.180Z,11.90
2019-05-23T02:21:58.824Z,11.90
2019-05-23T02:24:30.200Z,11.80
2019-05-23T02:27:01.557Z,11.80
2019-05-23T02:29:32.812Z,11.70
2019-05-23T02:32:03.615Z,11.80
2019-05-23T02:34:34.923Z,11.70
2019-05-23T02:37:07.364Z,11.70
2019-05-23T02:39:51.660Z,11.60
2019-05-23T02:42:41.514Z,11.60
2019-05-23T02:45:14.279Z,11.60
2019-05-23T02:47:50.766Z,11.60
2019-05-23T02:50:51.357Z,11.50
2019-05-23T02:53:23.721Z,11.40
2019-05-23T02:55:57.285Z,11.40
2019-05-23T02:58:37.098Z,11.40
2019-05-23T03:01:39.920Z,11.40
2019-05-23T03:07:09.420Z,11.40
2019-05-23T03:09:41.367Z,11.40
2019-05-23T03:12:13.553Z,11.40
2019-05-23T03:14:45.852Z,11.30
2019-05-23T03:17:18.729Z,11.30
2019-05-23T03:19:58.212Z,11.30
2019-05-23T03:22:32.003Z,11.20
2019-05-23T03:25:10.502Z,11.20
2019-05-23T03:27:44.930Z,11.20
2019-05-23T03:30:17.320Z,11.20
2019-05-23T03:35:43.487Z,11.20
2019-05-23T03:38:14.631Z,11.30
2019-05-23T03:40:46.072Z,11.30
2019-05-23T03:43:16.960Z,11.30
2019-05-23T03:46:04.611Z,11.20
2019-05-23T03:48:36.609Z,11.10
2019-05-23T03:51:09.769Z,11.10
2019-05-23T03:53:41.707Z,11.00
2019-05-23T03:56:12.348Z,11.10
2019-05-23T03:58:42.733Z,11.10
2019-05-23T04:01:14.827Z,11.10
2019-05-23T04:03:45.566Z,11.10
2019-05-23T04:06:16.522Z,11.10
2019-05-23T04:08:47.412Z,11.10
2019-05-23T04:11:18.937Z,11.20
2019-05-23T04:13:49.877Z,11.30
2019-05-23T04:16:20.574Z,11.10
2019-05-23T04:18:51.452Z,11.20
2019-05-23T04:21:25.164Z,11.10
2019-05-23T04:23:55.886Z,11.20
2019-05-23T04:26:26.868Z,11.30
2019-05-23T04:28:58.078Z,11.20
2019-05-23T04:31:28.658Z,11.20
2019-05-23T04:33:59.036Z,11.30
2019-05-23T04:36:29.463Z,11.20
2019-05-23T04:39:00.277Z,11.20
2019-05-23T04:41:30.890Z,11.10
2019-05-23T04:44:01.239Z,11.00
2019-05-23T04:46:32.056Z,11.00
2019-05-23T04:49:02.783Z,10.90
2019-05-23T04:51:33.397Z,10.80
2019-05-23T04:54:04.282Z,10.70
2019-05-23T04:56:35.256Z,10.60
2019-05-23T04:59:06.184Z,10.50
2019-05-23T05:01:37.532Z,10.40
2019-05-23T05:04:08.223Z,10.40
2019-05-23T05:06:39.187Z,10.40
2019-05-23T05:09:11.495Z,10.40
2019-05-23T05:11:41.864Z,10.30
2019-05-23T05:14:12.964Z,10.30
2019-05-23T05:16:43.604Z,10.10
2019-05-23T05:19:14.275Z,10.20
2019-05-23T05:21:44.611Z,10.20
2019-05-23T05:24:15.596Z,10.20
2019-05-23T05:26:46.056Z,10.20
2019-05-23T05:29:16.795Z,10.30
2019-05-23T05:31:47.191Z,10.40
2019-05-23T05:34:17.607Z,10.50
2019-05-23T05:36:48.528Z,10.50
2019-05-23T05:39:19.455Z,10.60
2019-05-23T05:41:50.189Z,10.70
2019-05-23T05:44:21.291Z,10.80
2019-05-23T05:46:51.863Z,10.80
2019-05-23T05:49:22.424Z,10.90
2019-05-23T05:51:52.794Z,11.00
2019-05-23T05:54:24.200Z,11.10
2019-05-23T05:56:54.562Z,11.20
2019-05-23T05:59:24.981Z,11.30
2019-05-23T06:01:56.350Z,11.40
2019-05-23T06:04:26.868Z,11.50
2019-05-23T06:07:11.336Z,11.60
2019-05-23T06:09:42.452Z,11.60
2019-05-23T06:12:13.959Z,11.70
2019-05-23T06:14:46.631Z,11.60
2019-05-23T06:17:18.156Z,11.70
2019-05-23T06:19:49.027Z,11.80
2019-05-23T06:22:20.116Z,11.90
2019-05-23T06:24:54.776Z,11.90
2019-05-23T06:27:42.606Z,12.00
2019-05-23T06:30:15.489Z,12.10
2019-05-23T06:32:46.402Z,12.20
2019-05-23T06:35:16.741Z,12.40
2019-05-23T06:37:47.685Z,12.50
2019-05-23T06:40:19.142Z,12.50
2019-05-23T06:42:50.831Z,12.60
2019-05-23T06:45:21.844Z,12.80
2019-05-23T06:47:52.473Z,12.90
2019-05-23T06:50:22.871Z,13.00
2019-05-23T06:52:53.653Z,13.10
2019-05-23T06:55:24.309Z,13.10
2019-05-23T06:57:55.273Z,13.20
2019-05-23T07:00:29.038Z,13.20
2019-05-23T07:02:59.408Z,13.20
2019-05-23T07:05:34.549Z,13.20
2019-05-23T07:08:06.103Z,13.30
2019-05-23T07:10:36.772Z,13.40
2019-05-23T07:13:07.136Z,13.40
2019-05-23T07:15:37.583Z,13.40
2019-05-23T07:18:08.096Z,13.50
2019-05-23T07:20:38.535Z,13.40
2019-05-23T07:23:11.547Z,13.40
2019-05-23T07:25:41.932Z,13.60
2019-05-23T07:28:12.716Z,13.80
2019-05-23T07:30:43.095Z,13.90
2019-05-23T07:33:13.711Z,13.90
2019-05-23T07:35:44.111Z,14.00
2019-05-23T07:38:14.998Z,14.00
2019-05-23T07:40:46.584Z,14.10
2019-05-23T07:43:17.280Z,14.20
2019-05-23T07:45:49.353Z,14.50
2019-05-23T07:48:20.093Z,14.50
2019-05-23T07:50:50.486Z,14.60
2019-05-23T07:53:22.565Z,14.70
2019-05-23T07:55:54.612Z,14.60
2019-05-23T07:58:25.522Z,14.70
2019-05-23T08:00:58.085Z,14.70
2019-05-23T08:03:28.999Z,14.80
2019-05-23T08:05:59.523Z,14.80
2019-05-23T08:08:30.499Z,14.90
2019-05-23T08:11:01.237Z,15.00
2019-05-23T08:13:32.673Z,15.00
2019-05-23T08:16:04.287Z,15.10
2019-05-23T08:18:35.169Z,15.10
2019-05-23T08:21:05.495Z,15.20
2019-05-23T08:23:35.885Z,15.20
2019-05-23T08:26:06.496Z,15.20
2019-05-23T08:28:36.893Z,15.20
2019-05-23T08:31:07.264Z,15.10
2019-05-23T08:33:49.649Z,15.10
2019-05-23T08:36:20.459Z,15.20
2019-05-23T08:38:51.170Z,15.40
2019-05-23T08:41:22.040Z,15.50
2019-05-23T08:43:53.328Z,15.60
2019-05-23T08:46:23.859Z,15.60
2019-05-23T08:48:54.750Z,15.70
2019-05-23T08:51:25.382Z,15.80
2019-05-23T08:53:55.725Z,15.80
2019-05-23T08:56:27.678Z,15.90
2019-05-23T08:58:58.778Z,15.90
2019-05-23T09:01:29.509Z,15.90
2019-05-23T09:04:00.477Z,16.00
2019-05-23T09:06:30.860Z,16.10
2019-05-23T09:09:02.555Z,16.10
2019-05-23T09:11:33.150Z,16.20
2019-05-23T09:14:03.859Z,16.30
2019-05-23T09:16:34.868Z,16.40
2019-05-23T09:19:05.268Z,16.50
2019-05-23T09:21:36.418Z,16.60
2019-05-23T09:24:06.930Z,16.70
2019-05-23T09:26:37.588Z,16.80
2019-05-23T09:29:08.317Z,17.00
2019-05-23T09:31:39.292Z,17.00
2019-05-23T09:34:10.000Z,17.10
2019-05-23T09:36:40.417Z,17.20
2019-05-23T09:39:12.402Z,17.30
2019-05-23T09:41:42.887Z,17.30
2019-05-23T09:44:13.767Z,17.20
2019-05-23T09:46:44.776Z,17.20
2019-05-23T09:49:15.136Z,17.40
2019-05-23T09:51:46.997Z,17.50
2019-05-23T09:54:17.734Z,17.70
2019-05-23T09:56:48.118Z,17.60
2019-05-23T09:59:18.526Z,17.60
2019-05-23T10:01:49.523Z,17.70
2019-05-23T10:04:19.918Z,17.80
2019-05-23T10:06:50.253Z,18.00
2019-05-23T10:09:20.615Z,18.10
2019-05-23T10:11:51.387Z,18.20
2019-05-23T10:14:26.754Z,18.40
2019-05-23T10:16:57.143Z,18.50
2019-05-23T10:19:27.825Z,18.40
2019-05-23T10:21:58.285Z,18.40
2019-05-23T10:24:28.976Z,18.40
2019-05-23T10:26:59.428Z,18.30
2019-05-23T10:29:29.768Z,18.10
2019-05-23T10:32:00.486Z,18.10
2019-05-23T10:34:30.860Z,18.20
2019-05-23T10:37:01.239Z,18.30
2019-05-23T10:39:34.750Z,18.40
2019-05-23T10:42:05.470Z,18.50
2019-05-23T10:44:35.980Z,18.80
2019-05-23T10:47:06.333Z,19.00
2019-05-23T10:49:37.074Z,19.00
2019-05-23T10:52:07.834Z,19.00
2019-05-23T10:54:38.757Z,19.10
2019-05-23T10:57:09.187Z,19.20
2019-05-23T10:59:39.879Z,19.30
2019-05-23T11:02:10.616Z,19.40
2019-05-23T11:04:40.983Z,19.50
2019-05-23T11:07:12.121Z,19.50
2019-05-23T11:09:43.051Z,19.30
2019-05-23T11:12:14.807Z,19.30
2019-05-23T11:14:45.145Z,19.40
2019-05-23T11:17:15.480Z,19.40
2019-05-23T11:19:45.909Z,19.60
2019-05-23T11:22:16.657Z,19.70
2019-05-23T11:24:47.084Z,19.80
2019-05-23T11:27:18.034Z,19.80
2019-05-23T11:29:48.785Z,19.90
2019-05-23T11:32:20.452Z,20.10
2019-05-23T11:34:51.183Z,20.20
2019-05-23T11:37:22.144Z,20.10
2019-05-23T11:39:52.550Z,20.00
2019-05-23T11:42:23.243Z,20.00
2019-05-23T11:44:53.978Z,19.90
2019-05-23T11:47:25.128Z,19.90
2019-05-23T11:49:55.480Z,20.10
2019-05-23T11:52:27.129Z,19.80
2019-05-23T11:54:57.465Z,19.60
2019-05-23T11:57:28.232Z,19.60
2019-05-23T11:59:58.647Z,19.60
2019-05-23T12:02:30.991Z,19.70
2019-05-23T12:05:03.339Z,19.80
2019-05-23T12:07:34.338Z,19.80
2019-05-23T12:10:05.633Z,19.80
2019-05-23T12:12:36.470Z,19.60
2019-05-23T12:15:09.716Z,19.30
2019-05-23T12:17:59.903Z,18.90
2019-05-23T12:20:30.410Z,19.10
2019-05-23T12:23:00.891Z,19.60
2019-05-23T12:25:31.936Z,19.90
2019-05-23T12:28:03.000Z,20.10
2019-05-23T12:30:33.347Z,20.30
2019-05-23T12:33:04.639Z,20.50
2019-05-23T12:35:34.986Z,20.50
2019-05-23T12:38:05.795Z,20.40
2019-05-23T12:40:36.425Z,20.20
2019-05-23T12:43:06.883Z,20.00
2019-05-23T12:45:37.293Z,19.60
2019-05-23T12:48:25.500Z,19.50
2019-05-23T12:50:57.501Z,19.80
2019-05-23T12:53:28.016Z,20.10
2019-05-23T12:55:58.764Z,20.20
2019-05-23T12:58:30.276Z,20.20
2019-05-23T13:01:02.595Z,20.50
2019-05-23T13:03:33.347Z,20.40
2019-05-23T13:06:03.893Z,20.30
2019-05-23T13:08:34.227Z,20.40
2019-05-23T13:11:04.818Z,20.40
2019-05-23T13:13:35.219Z,20.40
2019-05-23T13:16:05.613Z,20.30
2019-05-23T13:18:35.997Z,20.40
2019-05-23T13:21:06.456Z,20.40
2019-05-23T13:23:37.160Z,20.50
2019-05-23T13:26:07.760Z,20.60
2019-05-23T13:28:38.109Z,20.60
2019-05-23T13:31:08.486Z,20.60
2019-05-23T13:33:38.838Z,20.80
2019-05-23T13:36:09.768Z,20.80
2019-05-23T13:38:40.504Z,20.70
2019-05-23T13:41:11.220Z,20.60
2019-05-23T13:43:42.089Z,20.70
2019-05-23T13:46:12.447Z,20.70
2019-05-23T13:48:43.215Z,20.80
2019-05-23T13:51:13.570Z,20.60
2019-05-23T13:53:44.342Z,20.30
2019-05-23T13:56:14.735Z,20.30
2019-05-23T13:58:45.322Z,20.20
2019-05-23T14:01:15.707Z,19.90
2019-05-23T14:03:46.706Z,20.00
2019-05-23T14:06:17.725Z,19.80
2019-05-23T14:08:48.617Z,19.70
2019-05-23T14:11:19.458Z,19.60
2019-05-23T14:13:59.143Z,19.10
2019-05-23T14:16:22.266Z,19.20
2019-05-23T14:18:52.890Z,19.30
2019-05-23T14:21:23.226Z,19.30
2019-05-23T14:23:54.508Z,19.60
2019-05-23T14:26:26.870Z,19.80
2019-05-23T14:28:57.261Z,20.10
2019-05-23T14:31:29.511Z,20.20
2019-05-23T14:34:01.951Z,20.40
2019-05-23T14:36:37.451Z,20.60
2019-05-23T14:39:10.190Z,20.60
2019-05-23T14:41:58.451Z,20.70
2019-05-23T14:44:29.372Z,20.90
2019-05-23T14:47:01.420Z,21.00
2019-05-23T14:49:42.599Z,21.00
2019-05-23T14:52:30.768Z,20.90
2019-05-23T14:55:03.083Z,21.00
2019-05-23T14:57:33.467Z,21.00
2019-05-23T15:00:08.323Z,20.90
2019-05-23T15:02:38.915Z,21.10
2019-05-23T15:05:09.872Z,21.20
2019-05-23T15:07:40.271Z,21.20
2019-05-23T15:10:10.696Z,21.30
2019-05-23T15:12:45.839Z,21.30
2019-05-23T15:15:18.283Z,21.30
2019-05-23T15:17:48.687Z,20.90
2019-05-23T15:20:19.500Z,20.50
2019-05-23T15:22:49.954Z,20.30
2019-05-23T15:25:20.282Z,19.70
2019-05-23T15:27:50.619Z,19.70
2019-05-23T15:30:21.038Z,19.80
2019-05-23T15:32:51.715Z,20.00
2019-05-23T15:35:22.422Z,20.00
2019-05-23T15:37:53.319Z,20.20
2019-05-23T15:40:23.972Z,19.90
2019-05-23T15:42:54.729Z,19.90
2019-05-23T15:45:25.071Z,20.00
2019-05-23T15:47:55.468Z,20.00
2019-05-23T15:50:30.403Z,20.00
2019-05-23T15:53:08.791Z,20.00
2019-05-23T15:55:41.140Z,20.10
2019-05-23T15:58:22.382Z,20.10
2019-05-23T16:00:54.524Z,20.10
2019-05-23T16:03:44.613Z,20.00
2019-05-23T16:06:25.407Z,20.00
2019-05-23T16:08:55.860Z,19.90
2019-05-23T16:11:26.524Z,20.00
2019-05-23T16:13:57.031Z,20.20
2019-05-23T16:16:33.587Z,20.30
2019-05-23T16:19:04.250Z,20.40
2019-05-23T16:21:35.153Z,20.20
2019-05-23T16:24:06.648Z,20.30
2019-05-23T16:26:40.971Z,20.30
2019-05-23T16:29:12.837Z,20.10
2019-05-23T16:31:43.211Z,20.10
2019-05-23T16:34:13.628Z,19.90
2019-05-23T16:36:44.250Z,19.70
2019-05-23T16:39:15.153Z,19.60
2019-05-23T16:41:45.538Z,19.60
2019-05-23T16:44:16.122Z,19.70
2019-05-23T16:46:46.514Z,19.80
2019-05-23T16:49:17.211Z,19.60
2019-05-23T16:51:47.584Z,19.50
2019-05-23T16:54:19.582Z,19.50
2019-05-23T16:57:07.800Z,19.20
2019-05-23T16:59:45.539Z,19.00
2019-05-23T17:02:30.173Z,19.00
2019-05-23T17:05:10.326Z,19.10
2019-05-23T17:07:48.259Z,19.20
2019-05-23T17:10:22.667Z,19.20
2019-05-23T17:12:55.065Z,19.30
2019-05-23T17:15:29.567Z,19.20
2019-05-23T17:18:04.641Z,19.00
2019-05-23T17:20:42.372Z,18.80
2019-05-23T17:23:30.770Z,18.60
2019-05-23T17:26:09.218Z,18.60
2019-05-23T17:28:41.212Z,18.70
2019-05-23T17:31:19.138Z,18.70
2019-05-23T17:33:49.988Z,18.50
2019-05-23T17:36:20.748Z,18.50
2019-05-23T17:38:51.168Z,18.40
2019-05-23T17:41:21.692Z,18.40
2019-05-23T17:43:52.550Z,18.40
2019-05-23T17:46:23.359Z,18.30
2019-05-23T17:48:53.727Z,18.20
2019-05-23T17:51:24.270Z,18.20
2019-05-23T17:53:54.928Z,18.10
2019-05-23T17:56:25.298Z,18.20
2019-05-23T17:58:57.302Z,18.10
2019-05-23T18:01:28.313Z,18.10
2019-05-23T18:03:59.124Z,18.00
2019-05-23T18:06:29.928Z,18.00
2019-05-23T18:09:00.680Z,17.90
2019-05-23T18:11:31.633Z,17.90
2019-05-23T18:14:02.373Z,17.90
2019-05-23T18:16:33.073Z,17.90
2019-05-23T18:19:04.597Z,17.80
2019-05-23T18:21:34.959Z,17.80
2019-05-23T18:24:06.403Z,17.70
2019-05-23T18:26:37.237Z,17.70
2019-05-23T18:29:08.252Z,17.60
2019-05-23T18:31:40.272Z,17.50
2019-05-23T18:34:10.813Z,17.40
2019-05-23T18:36:41.378Z,17.30
2019-05-23T18:39:13.678Z,17.30
2019-05-23T18:41:44.256Z,17.30
2019-05-23T18:44:15.368Z,17.30
2019-05-23T18:46:47.402Z,17.20
2019-05-23T18:49:19.462Z,17.10
2019-05-23T18:51:50.870Z,17.10
2019-05-23T18:54:21.207Z,17.00
2019-05-23T18:56:51.845Z,17.00
2019-05-23T18:59:22.267Z,17.00
2019-05-23T19:01:53.122Z,16.90
2019-05-23T19:04:24.101Z,16.80
2019-05-23T19:06:54.782Z,16.70
2019-05-23T19:09:26.716Z,16.70
2019-05-23T19:11:58.060Z,16.60
2019-05-23T19:14:29.102Z,16.50
2019-05-23T19:16:59.755Z,16.40
2019-05-23T19:19:30.425Z,16.30
2019-05-23T19:22:00.785Z,16.30
2019-05-23T19:24:31.948Z,16.10
2019-05-23T19:27:04.239Z,15.90
2019-05-23T19:29:34.986Z,15.90
2019-05-23T19:32:06.007Z,15.90
2019-05-23T19:34:36.403Z,15.80
2019-05-23T19:37:08.402Z,15.70
2019-05-23T19:39:39.409Z,15.60
2019-05-23T19:42:09.877Z,15.50
2019-05-23T19:44:40.650Z,15.40
2019-05-23T19:47:11.504Z,15.30
2019-05-23T19:49:41.879Z,15.20
2019-05-23T19:52:12.295Z,15.10
2019-05-23T19:54:43.035Z,15.10
2019-05-23T19:57:13.919Z,15.20
2019-05-23T19:59:44.262Z,15.10
2019-05-23T20:02:34.998Z,15.10
2019-05-23T20:05:07.839Z,15.10
2019-05-23T20:07:38.175Z,15.10
2019-05-23T20:10:09.338Z,15.10
2019-05-23T20:12:39.704Z,15.00
2019-05-23T20:15:10.641Z,15.00
2019-05-23T20:17:41.668Z,15.00
2019-05-23T20:20:12.298Z,14.90
2019-05-23T20:22:42.676Z,14.90
2019-05-23T20:25:15.255Z,14.90
2019-05-23T20:27:45.854Z,14.80
2019-05-23T20:30:42.850Z,14.80
2019-05-23T20:33:13.609Z,14.80
2019-05-23T20:35:44.091Z,14.70
2019-05-23T20:38:14.927Z,14.60
2019-05-23T20:40:45.316Z,14.50
2019-05-23T20:43:15.848Z,14.50
2019-05-23T20:45:46.213Z,14.40
2019-05-23T20:48:16.900Z,14.40
2019-05-23T20:50:47.323Z,14.30
2019-05-23T20:53:17.708Z,14.20
2019-05-23T20:55:48.101Z,14.20
2019-05-23T20:58:18.602Z,14.20
2019-05-23T21:00:56.793Z,14.10
2019-05-23T21:03:28.038Z,14.00
2019-05-23T21:05:58.464Z,14.00
2019-05-23T21:08:28.973Z,13.80
2019-05-23T21:10:59.364Z,13.60
2019-05-23T21:13:29.706Z,13.50
2019-05-23T21:16:00.382Z,13.50
2019-05-23T21:18:30.792Z,13.40
2019-05-23T21:21:01.231Z,13.40
2019-05-23T21:23:31.572Z,13.40
2019-05-23T21:26:03.557Z,13.40
2019-05-23T21:28:34.313Z,13.40
2019-05-23T21:31:06.315Z,13.30
2019-05-23T21:33:37.339Z,13.30
2019-05-23T21:36:08.054Z,13.20
2019-05-23T21:38:38.482Z,13.20
2019-05-23T21:41:08.848Z,13.00
2019-05-23T21:43:39.189Z,12.90
2019-05-23T21:46:10.138Z,12.70
2019-05-23T21:48:40.561Z,12.60
2019-05-23T21:51:11.011Z,12.60
2019-05-23T21:53:41.433Z,12.60
2019-05-23T21:56:11.928Z,12.60
2019-05-23T21:58:42.324Z,12.50
2019-05-23T22:01:15.412Z,12.40
2019-05-23T22:03:53.453Z,12.40
2019-05-23T22:06:25.890Z,12.30
2019-05-23T22:08:57.547Z,12.20
2019-05-23T22:11:27.939Z,12.20
2019-05-23T22:13:58.841Z,12.10
2019-05-23T22:16:29.993Z,12.00
2019-05-23T22:19:00.782Z,12.10
2019-05-23T22:21:31.211Z,12.10
2019-05-23T22:24:02.561Z,12.10
2019-05-23T22:26:32.989Z,12.00
2019-05-23T22:29:04.031Z,12.00
2019-05-23T22:31:35.631Z,12.00
2019-05-23T22:34:08.150Z,12.00
2019-05-23T22:36:38.682Z,12.00
2019-05-23T22:39:09.297Z,12.00
2019-05-23T22:41:39.733Z,12.00
2019-05-23T22:44:10.237Z,11.90
2019-05-23T22:46:40.827Z,11.90
2019-05-23T22:49:11.507Z,11.80
2019-05-23T22:51:42.147Z,11.80
2019-05-23T22:54:12.570Z,11.80
2019-05-23T22:56:42.943Z,11.80
2019-05-23T22:59:13.654Z,11.80
2019-05-23T23:01:44.093Z,11.70
2019-05-23T23:04:15.493Z,11.70
2019-05-23T23:06:46.163Z,11.60
2019-05-23T23:09:16.547Z,11.60
2019-05-23T23:11:47.080Z,11.50
2019-05-23T23:14:17.861Z,11.50
2019-05-23T23:16:48.672Z,11.50
2019-05-23T23:19:19.537Z,11.40
2019-05-23T23:21:49.925Z,11.40
2019-05-23T23:24:20.622Z,11.30
2019-05-23T23:26:53.612Z,11.30
2019-05-23T23:29:24.376Z,11.20
2019-05-23T23:31:54.715Z,11.20
2019-05-23T23:34:25.157Z,11.20
2019-05-23T23:36:55.915Z,11.10
2019-05-23T23:39:26.335Z,11.10
2019-05-23T23:41:56.689Z,11.10
2019-05-23T23:44:35.302Z,11.10
2019-05-23T23:47:24.519Z,11.10
2019-05-23T23:50:13.233Z,11.10
2019-05-23T23:53:01.840Z,11.10
2019-05-23T23:55:50.474Z,11.10
2019-05-23T23:58:20.344Z,11.10
